createdAt,value
2022-08-22T00:02:28.307Z,21.11
2022-08-22T00:02:45.056Z,23.36
2022-08-22T00:03:03.386Z,22.44
2022-08-22T00:03:08.939Z,21.72
2022-08-22T00:03:09.861Z,22.02
2022-08-22T00:05:18.297Z,21.16
2022-08-22T00:08:27.382Z,21.20
2022-08-22T00:11:07.776Z,21.21
2022-08-22T00:14:31.028Z,21.24
2022-08-22T00:17:16.652Z,21.25
2022-08-22T00:20:00.538Z,21.26
2022-08-22T00:23:10.996Z,21.28
2022-08-22T00:25:51.872Z,21.26
2022-08-22T00:28:23.448Z,21.24
2022-08-22T00:31:39.284Z,21.24
2022-08-22T00:34:29.377Z,21.23
2022-08-22T00:37:20.291Z,21.22
2022-08-22T00:40:12.497Z,21.21
2022-08-22T00:42:59.311Z,21.18
2022-08-22T00:46:10.485Z,21.14
2022-08-22T00:49:01.620Z,21.13
2022-08-22T00:52:04.138Z,21.09
2022-08-22T00:55:34.901Z,21.07
2022-08-22T00:58:59.152Z,21.05
2022-08-22T01:02:12.441Z,21.02
2022-08-22T01:05:02.607Z,21.01
2022-08-22T01:08:07.241Z,20.98
2022-08-22T01:10:46.920Z,20.99
2022-08-22T01:13:41.596Z,21.00
2022-08-22T01:16:40.867Z,21.00
2022-08-22T01:19:44.985Z,21.01
2022-08-22T01:22:48.520Z,21.01
2022-08-22T01:25:40.225Z,21.02
2022-08-22T01:28:34.414Z,21.04
2022-08-22T01:31:22.113Z,21.07
2022-08-22T01:34:26.804Z,21.07
2022-08-22T01:37:49.492Z,21.05
2022-08-22T01:40:53.477Z,20.97
2022-08-22T01:43:51.481Z,20.89
2022-08-22T01:46:48.296Z,20.81
2022-08-22T01:49:32.619Z,20.78
2022-08-22T01:52:10.755Z,20.73
2022-08-22T01:54:57.097Z,20.67
2022-08-22T01:57:25.668Z,20.62
2022-08-22T01:59:58.733Z,20.57
2022-08-22T02:03:13.015Z,20.54
2022-08-22T02:05:52.759Z,20.50
2022-08-22T02:08:32.987Z,20.45
2022-08-22T02:11:11.440Z,20.39
2022-08-22T02:13:45.743Z,20.35
2022-08-22T02:16:25.276Z,20.31
2022-08-22T02:19:20.550Z,20.29
2022-08-22T02:22:03.041Z,20.26
2022-08-22T02:24:32.674Z,20.22
2022-08-22T02:27:35.291Z,20.19
2022-08-22T02:30:15.632Z,20.18
2022-08-22T02:33:03.983Z,20.15
2022-08-22T02:35:51.816Z,20.12
2022-08-22T02:38:24.289Z,20.09
2022-08-22T02:41:05.449Z,20.08
2022-08-22T02:43:56.787Z,20.06
2022-08-22T02:46:54.183Z,20.05
2022-08-22T02:49:47.475Z,20.06
2022-08-22T02:52:40.736Z,20.13
2022-08-22T02:55:15.116Z,20.19
2022-08-22T02:58:09.108Z,20.24
2022-08-22T03:01:16.563Z,20.31
2022-08-22T03:03:46.695Z,20.36
2022-08-22T03:06:16.480Z,20.37
2022-08-22T03:09:23.300Z,20.39
2022-08-22T03:12:13.459Z,20.43
2022-08-22T03:15:18.943Z,20.46
2022-08-22T03:18:27.491Z,20.48
2022-08-22T03:21:13.399Z,20.50
2022-08-22T03:24:14.679Z,20.49
2022-08-22T03:27:05.624Z,20.49
2022-08-22T03:29:47.432Z,20.51
2022-08-22T03:32:22.239Z,20.52
2022-08-22T03:35:02.422Z,20.54
2022-08-22T03:37:40.373Z,20.59
2022-08-22T03:40:19.127Z,20.61
2022-08-22T03:43:11.948Z,20.62
2022-08-22T03:46:11.449Z,20.63
2022-08-22T03:48:44.168Z,20.64
2022-08-22T03:52:07.196Z,20.64
2022-08-22T03:54:58.832Z,20.66
2022-08-22T03:57:31.684Z,20.70
2022-08-22T04:00:56.814Z,20.70
2022-08-22T04:04:03.016Z,20.71
2022-08-22T04:07:32.160Z,20.75
2022-08-22T04:10:21.037Z,20.80
2022-08-22T04:13:42.857Z,20.85
2022-08-22T04:16:49.456Z,20.92
2022-08-22T04:19:31.645Z,21.01
2022-08-22T04:22:39.951Z,21.12
2022-08-22T04:25:41.766Z,21.22
2022-08-22T04:28:10.230Z,21.29
2022-08-22T04:31:05.865Z,21.33
2022-08-22T04:34:12.029Z,21.38
2022-08-22T04:37:03.852Z,21.40
2022-08-22T04:39:43.591Z,21.40
2022-08-22T04:42:33.043Z,21.42
2022-08-22T04:45:18.692Z,21.48
2022-08-22T04:48:05.992Z,21.54
2022-08-22T04:50:49.108Z,21.60
2022-08-22T04:53:53.023Z,21.66
2022-08-22T04:56:48.718Z,21.72
2022-08-22T04:59:18.768Z,21.76
2022-08-22T05:01:58.620Z,21.84
2022-08-22T05:04:30.593Z,21.92
2022-08-22T05:07:26.591Z,21.95
2022-08-22T05:10:09.334Z,21.91
2022-08-22T05:12:45.376Z,21.78
2022-08-22T05:15:23.262Z,21.67
2022-08-22T05:17:55.492Z,21.55
2022-08-22T05:20:25.868Z,21.49
2022-08-22T05:23:05.905Z,21.45
2022-08-22T05:25:37.591Z,21.44
2022-08-22T05:28:17.128Z,21.47
2022-08-22T05:30:47.778Z,21.56
2022-08-22T05:33:26.282Z,21.66
2022-08-22T05:36:09.519Z,21.77
2022-08-22T05:38:45.500Z,21.81
2022-08-22T05:41:23.882Z,21.87
2022-08-22T05:43:53.154Z,21.99
2022-08-22T05:46:38.167Z,22.12
2022-08-22T05:49:32.304Z,22.26
2022-08-22T05:52:30.984Z,22.36
2022-08-22T05:55:19.560Z,22.44
2022-08-22T05:57:55.010Z,22.50
2022-08-22T06:00:27.840Z,22.65
2022-08-22T06:03:13.169Z,22.82
2022-08-22T06:05:45.042Z,23.05
2022-08-22T06:08:30.349Z,23.13
2022-08-22T06:11:05.136Z,23.19
2022-08-22T06:13:37.200Z,23.32
2022-08-22T06:16:36.927Z,23.43
2022-08-22T06:19:04.981Z,23.45
2022-08-22T06:21:50.132Z,23.45
2022-08-22T06:24:24.248Z,23.38
2022-08-22T06:26:56.340Z,23.39
2022-08-22T06:29:50.670Z,23.46
2022-08-22T06:32:44.607Z,23.56
2022-08-22T06:35:59.429Z,23.57
2022-08-22T06:38:32.938Z,23.54
2022-08-22T06:41:07.368Z,23.51
2022-08-22T06:43:42.431Z,23.49
2022-08-22T06:46:12.700Z,23.49
2022-08-22T06:48:40.664Z,23.49
2022-08-22T06:51:08.286Z,23.48
2022-08-22T06:53:47.775Z,23.48
2022-08-22T06:56:25.885Z,23.45
2022-08-22T06:58:59.957Z,23.39
2022-08-22T07:01:35.200Z,23.36
2022-08-22T07:04:09.678Z,23.34
2022-08-22T07:06:42.633Z,23.35
2022-08-22T07:09:27.520Z,23.40
2022-08-22T07:11:58.883Z,23.49
2022-08-22T07:14:42.617Z,23.61
2022-08-22T07:17:18.608Z,23.74
2022-08-22T07:19:58.989Z,23.82
2022-08-22T07:22:31.813Z,23.91
2022-08-22T07:25:14.188Z,23.98
2022-08-22T07:27:54.692Z,23.96
2022-08-22T07:30:28.046Z,24.03
2022-08-22T07:33:30.334Z,24.19
2022-08-22T07:36:05.465Z,24.39
2022-08-22T07:38:44.998Z,24.56
2022-08-22T07:41:17.926Z,24.66
2022-08-22T07:43:51.288Z,24.73
2022-08-22T07:46:42.037Z,24.86
2022-08-22T07:49:23.988Z,24.93
2022-08-22T07:52:03.928Z,24.94
2022-08-22T07:54:47.767Z,24.97
2022-08-22T07:57:24.405Z,25.07
2022-08-22T07:59:54.886Z,25.12
2022-08-22T08:02:24.176Z,25.17
2022-08-22T08:04:54.446Z,25.20
2022-08-22T08:07:26.369Z,25.21
2022-08-22T08:10:07.972Z,25.19
2022-08-22T08:12:43.817Z,25.20
2022-08-22T08:15:23.259Z,25.26
2022-08-22T08:18:01.476Z,25.40
2022-08-22T08:20:29.826Z,25.54
2022-08-22T08:22:58.732Z,25.59
2022-08-22T08:25:29.146Z,25.58
2022-08-22T08:28:18.179Z,25.50
2022-08-22T08:30:54.751Z,25.42
2022-08-22T08:33:27.614Z,25.30
2022-08-22T08:36:55.323Z,25.23
2022-08-22T08:39:35.349Z,25.14
2022-08-22T08:43:12.173Z,25.12
2022-08-22T08:45:51.297Z,25.06
2022-08-22T08:49:11.774Z,25.10
2022-08-22T08:52:03.026Z,25.16
2022-08-22T08:55:21.811Z,25.25
2022-08-22T08:58:33.484Z,25.32
2022-08-22T09:01:06.416Z,25.40
2022-08-22T09:04:15.253Z,25.49
2022-08-22T09:06:54.795Z,25.58
2022-08-22T09:10:20.224Z,25.65
2022-08-22T09:12:56.064Z,25.68
2022-08-22T09:16:04.990Z,25.71
2022-08-22T09:19:01.716Z,25.74
2022-08-22T09:22:01.967Z,25.83
2022-08-22T09:24:57.524Z,25.89
2022-08-22T09:27:54.481Z,25.95
2022-08-22T09:30:32.488Z,25.99
2022-08-22T09:33:13.797Z,26.01
2022-08-22T09:36:17.813Z,26.05
2022-08-22T09:39:18.578Z,26.06
2022-08-22T09:42:02.677Z,26.06
2022-08-22T09:44:39.737Z,26.14
2022-08-22T09:47:25.048Z,26.19
2022-08-22T09:50:23.981Z,26.29
2022-08-22T09:53:32.334Z,26.33
2022-08-22T09:56:38.561Z,26.42
2022-08-22T09:59:16.080Z,26.55
2022-08-22T10:01:58.521Z,26.69
2022-08-22T10:04:52.843Z,26.78
2022-08-22T10:08:00.877Z,26.90
2022-08-22T10:10:46.166Z,27.01
2022-08-22T10:13:31.639Z,27.11
2022-08-22T10:16:22.652Z,27.19
2022-08-22T10:19:23.764Z,27.26
2022-08-22T10:22:20.304Z,27.30
2022-08-22T10:25:06.892Z,27.34
2022-08-22T10:27:39.730Z,27.37
2022-08-22T10:30:11.280Z,27.42
2022-08-22T10:32:51.601Z,27.44
2022-08-22T10:35:46.414Z,27.50
2022-08-22T10:38:31.832Z,27.55
2022-08-22T10:41:25.353Z,27.60
2022-08-22T10:44:16.631Z,27.69
2022-08-22T10:47:14.001Z,27.75
2022-08-22T10:49:59.922Z,27.75
2022-08-22T10:53:19.110Z,27.74
2022-08-22T10:56:09.169Z,27.74
2022-08-22T10:58:55.366Z,27.77
2022-08-22T11:01:41.052Z,27.82
2022-08-22T11:04:37.672Z,27.86
2022-08-22T11:08:00.560Z,27.88
2022-08-22T11:10:48.253Z,27.90
2022-08-22T11:13:32.866Z,27.90
2022-08-22T11:16:10.884Z,27.85
2022-08-22T11:19:02.558Z,27.83
2022-08-22T11:22:03.760Z,27.81
2022-08-22T11:24:35.657Z,27.84
2022-08-22T11:27:35.192Z,27.89
2022-08-22T11:30:18.585Z,28.02
2022-08-22T11:33:32.495Z,28.16
2022-08-22T11:36:40.976Z,28.22
2022-08-22T11:39:33.037Z,28.21
2022-08-22T11:42:08.264Z,28.22
2022-08-22T11:45:11.665Z,28.23
2022-08-22T11:48:02.082Z,28.30
2022-08-22T11:50:45.277Z,28.35
2022-08-22T11:53:41.555Z,28.42
2022-08-22T11:56:52.814Z,28.52
2022-08-22T11:59:32.562Z,28.67
2022-08-22T12:02:12.545Z,28.76
2022-08-22T12:04:54.630Z,28.85
2022-08-22T12:07:31.271Z,28.91
2022-08-22T12:10:08.728Z,28.88
2022-08-22T12:12:42.075Z,28.83
2022-08-22T12:15:24.433Z,28.82
2022-08-22T12:18:25.027Z,28.77
2022-08-22T12:21:21.594Z,28.72
2022-08-22T12:24:19.150Z,28.75
2022-08-22T12:27:35.744Z,28.83
2022-08-22T12:30:27.904Z,28.91
2022-08-22T12:33:35.309Z,28.91
2022-08-22T12:36:20.237Z,28.95
2022-08-22T12:39:23.785Z,29.02
2022-08-22T12:42:35.106Z,29.11
2022-08-22T12:45:44.771Z,29.16
2022-08-22T12:48:38.189Z,29.16
2022-08-22T12:51:35.861Z,29.22
2022-08-22T12:54:49.080Z,29.27
2022-08-22T12:57:34.168Z,29.34
2022-08-22T13:00:43.270Z,29.38
2022-08-22T13:03:31.625Z,29.37
2022-08-22T13:06:25.388Z,29.34
2022-08-22T13:08:53.782Z,29.30
2022-08-22T13:11:23.158Z,29.24
2022-08-22T13:13:57.130Z,29.18
2022-08-22T13:16:38.762Z,29.12
2022-08-22T13:19:16.465Z,29.06
2022-08-22T13:21:52.510Z,29.06
2022-08-22T13:24:40.946Z,29.08
2022-08-22T13:27:50.753Z,29.13
2022-08-22T13:30:34.426Z,29.25
2022-08-22T13:33:35.432Z,29.39
2022-08-22T13:36:07.787Z,29.51
2022-08-22T13:38:57.282Z,29.62
2022-08-22T13:41:42.632Z,29.74
2022-08-22T13:44:24.092Z,29.82
2022-08-22T13:47:13.013Z,29.86
2022-08-22T13:49:52.916Z,29.88
2022-08-22T13:52:52.224Z,29.90
2022-08-22T13:55:49.104Z,29.97
2022-08-22T13:58:38.825Z,30.00
2022-08-22T14:01:20.946Z,30.03
2022-08-22T14:04:32.327Z,30.08
2022-08-22T14:07:03.147Z,30.12
2022-08-22T14:09:58.380Z,30.11
2022-08-22T14:12:49.920Z,30.09
2022-08-22T14:15:33.072Z,30.09
2022-08-22T14:18:35.365Z,30.08
2022-08-22T14:21:41.273Z,30.04
2022-08-22T14:24:45.922Z,29.95
2022-08-22T14:27:26.879Z,29.84
2022-08-22T14:30:01.862Z,29.73
2022-08-22T14:32:47.540Z,29.50
2022-08-22T14:35:44.556Z,29.25
2022-08-22T14:38:30.432Z,28.94
2022-08-22T14:41:09.885Z,28.83
2022-08-22T14:44:07.003Z,28.75
2022-08-22T14:46:55.638Z,28.62
2022-08-22T14:49:32.128Z,28.51
2022-08-22T14:52:09.608Z,28.44
2022-08-22T14:54:38.353Z,28.41
2022-08-22T14:57:19.802Z,28.39
2022-08-22T14:59:51.749Z,28.42
2022-08-22T15:02:32.351Z,28.44
2022-08-22T15:05:17.632Z,28.44
2022-08-22T15:07:58.732Z,28.43
2022-08-22T15:10:34.118Z,28.40
2022-08-22T15:13:07.762Z,28.39
2022-08-22T15:15:54.381Z,28.37
2022-08-22T15:18:26.765Z,28.42
2022-08-22T15:21:32.097Z,28.49
2022-08-22T15:24:09.139Z,28.52
2022-08-22T15:26:51.560Z,28.55
2022-08-22T15:29:35.863Z,28.53
2022-08-22T15:32:03.804Z,28.55
2022-08-22T15:34:45.228Z,28.56
2022-08-22T15:37:17.946Z,28.54
2022-08-22T15:40:11.683Z,28.50
2022-08-22T15:42:44.116Z,28.45
2022-08-22T15:45:33.769Z,28.41
2022-08-22T15:48:07.285Z,28.35
2022-08-22T15:50:36.666Z,28.29
2022-08-22T15:53:24.455Z,28.18
2022-08-22T15:56:06.426Z,28.06
2022-08-22T15:58:39.754Z,27.99
2022-08-22T16:01:22.294Z,27.98
2022-08-22T16:04:07.909Z,27.94
2022-08-22T16:06:54.408Z,27.89
2022-08-22T16:09:46.562Z,27.84
2022-08-22T16:12:47.167Z,27.80
2022-08-22T16:15:52.624Z,27.76
2022-08-22T16:18:36.328Z,27.71
2022-08-22T16:21:07.549Z,27.67
2022-08-22T16:23:49.847Z,27.62
2022-08-22T16:26:20.229Z,27.58
2022-08-22T16:28:59.319Z,27.56
2022-08-22T16:31:44.165Z,27.54
2022-08-22T16:34:17.201Z,27.53
2022-08-22T16:37:02.513Z,27.46
2022-08-22T16:39:36.675Z,27.41
2022-08-22T16:42:12.725Z,27.38
2022-08-22T16:45:07.780Z,27.36
2022-08-22T16:47:40.930Z,27.32
2022-08-22T16:50:22.745Z,27.28
2022-08-22T16:53:26.217Z,27.25
2022-08-22T16:56:28.797Z,27.18
2022-08-22T16:59:14.085Z,27.07
2022-08-22T17:02:29.716Z,26.99
2022-08-22T17:05:09.155Z,26.90
2022-08-22T17:08:24.457Z,26.84
2022-08-22T17:11:12.573Z,26.73
2022-08-22T17:14:18.701Z,26.62
2022-08-22T17:17:35.383Z,26.55
2022-08-22T17:20:36.722Z,26.47
2022-08-22T17:23:28.071Z,26.39
2022-08-22T17:26:29.256Z,26.24
2022-08-22T17:29:58.687Z,26.01
2022-08-22T17:33:23.480Z,25.72
2022-08-22T17:36:26.533Z,25.44
2022-08-22T17:39:15.848Z,25.29
2022-08-22T17:42:20.948Z,25.10
2022-08-22T17:45:12.959Z,24.96
2022-08-22T17:47:49.327Z,24.86
2022-08-22T17:50:16.054Z,24.74
2022-08-22T17:53:02.575Z,24.62
2022-08-22T17:56:11.585Z,24.50
2022-08-22T17:59:11.196Z,24.37
2022-08-22T18:01:58.161Z,24.26
2022-08-22T18:04:58.482Z,24.15
2022-08-22T18:07:55.706Z,24.06
2022-08-22T18:11:08.379Z,23.99
2022-08-22T18:13:56.707Z,23.90
2022-08-22T18:16:46.463Z,23.84
2022-08-22T18:19:38.049Z,23.79
2022-08-22T18:22:24.256Z,23.76
2022-08-22T18:25:07.146Z,23.73
2022-08-22T18:28:23.576Z,23.72
2022-08-22T18:31:33.235Z,23.71
2022-08-22T18:35:02.685Z,23.73
2022-08-22T18:37:32.875Z,23.69
2022-08-22T18:40:20.009Z,23.59
2022-08-22T18:43:23.443Z,23.54
2022-08-22T18:45:50.131Z,23.46
2022-08-22T18:48:33.604Z,23.40
2022-08-22T18:51:38.390Z,23.37
2022-08-22T18:54:06.316Z,23.34
2022-08-22T18:56:57.733Z,23.29
2022-08-22T19:00:16.707Z,23.16
2022-08-22T19:03:13.808Z,23.01
2022-08-22T19:06:08.008Z,22.95
2022-08-22T19:09:19.528Z,22.90
2022-08-22T19:12:25.777Z,22.91
2022-08-22T19:15:27.694Z,22.90
2022-08-22T19:18:06.288Z,22.86
2022-08-22T19:20:56.440Z,22.83
2022-08-22T19:23:32.079Z,22.78
2022-08-22T19:26:23.213Z,22.73
2022-08-22T19:29:04.254Z,22.68
2022-08-22T19:31:35.408Z,22.62
2022-08-22T19:34:34.851Z,22.57
2022-08-22T19:37:30.908Z,22.57
2022-08-22T19:40:08.915Z,22.62
2022-08-22T19:42:42.699Z,22.63
2022-08-22T19:45:28.028Z,22.62
2022-08-22T19:48:09.442Z,22.61
2022-08-22T19:50:38.934Z,22.62
2022-08-22T19:53:21.901Z,22.62
2022-08-22T19:56:12.938Z,22.63
2022-08-22T19:59:28.480Z,22.64
2022-08-22T20:02:19.240Z,22.63
2022-08-22T20:05:03.349Z,22.64
2022-08-22T20:07:36.375Z,22.65
2022-08-22T20:10:31.652Z,22.66
2022-08-22T20:13:17.393Z,22.65
2022-08-22T20:16:43.420Z,22.63
2022-08-22T20:19:18.915Z,22.56
2022-08-22T20:21:57.738Z,22.55
2022-08-22T20:24:44.048Z,22.55
2022-08-22T20:27:32.473Z,22.52
2022-08-22T20:30:28.565Z,22.46
2022-08-22T20:33:08.443Z,22.43
2022-08-22T20:35:50.752Z,22.40
2022-08-22T20:38:23.740Z,22.39
2022-08-22T20:41:21.011Z,22.37
2022-08-22T20:43:55.268Z,22.35
2022-08-22T20:46:38.513Z,22.33
2022-08-22T20:49:24.599Z,22.32
2022-08-22T20:51:57.835Z,22.29
2022-08-22T20:54:29.965Z,22.27
2022-08-22T20:57:13.365Z,22.21
2022-08-22T20:59:53.117Z,22.15
2022-08-22T21:02:38.385Z,22.10
2022-08-22T21:05:21.788Z,22.02
2022-08-22T21:08:24.557Z,21.94
2022-08-22T21:11:18.779Z,21.85
2022-08-22T21:13:46.561Z,21.78
2022-08-22T21:16:13.480Z,21.72
2022-08-22T21:18:45.969Z,21.69
2022-08-22T21:21:18.839Z,21.65
2022-08-22T21:23:48.443Z,21.63
2022-08-22T21:26:27.131Z,21.58
2022-08-22T21:28:53.857Z,21.52
2022-08-22T21:31:26.552Z,21.44
2022-08-22T21:33:55.692Z,21.39
2022-08-22T21:36:30.313Z,21.33
2022-08-22T21:39:05.868Z,21.28
2022-08-22T21:41:43.336Z,21.25
2022-08-22T21:44:41.908Z,21.17
2022-08-22T21:47:31.243Z,21.10
2022-08-22T21:50:31.100Z,21.05
2022-08-22T21:53:27.185Z,20.98
2022-08-22T21:56:13.205Z,20.91
2022-08-22T21:58:41.275Z,20.85
2022-08-22T22:01:32.197Z,20.83
2022-08-22T22:03:59.515Z,20.79
2022-08-22T22:06:26.733Z,20.72
2022-08-22T22:08:54.623Z,20.68
2022-08-22T22:11:21.521Z,20.65
2022-08-22T22:13:48.403Z,20.61
2022-08-22T22:16:27.008Z,20.57
2022-08-22T22:18:54.422Z,20.52
2022-08-22T22:21:21.385Z,20.49
2022-08-22T22:23:49.958Z,20.46
2022-08-22T22:26:16.897Z,20.41
2022-08-22T22:28:47.730Z,20.39
2022-08-22T22:31:17.632Z,20.34
2022-08-22T22:33:45.529Z,20.25
2022-08-22T22:36:24.676Z,20.19
2022-08-22T22:38:53.345Z,20.14
2022-08-22T22:41:24.793Z,20.09
2022-08-22T22:43:54.308Z,20.04
2022-08-22T22:46:22.787Z,20.00
2022-08-22T22:48:49.933Z,20.02
2022-08-22T22:51:16.736Z,20.07
2022-08-22T22:53:44.292Z,20.10
2022-08-22T22:56:15.758Z,20.13
2022-08-22T22:58:43.494Z,20.15
2022-08-22T23:01:23.886Z,20.17
2022-08-22T23:03:57.797Z,20.18
2022-08-22T23:06:27.718Z,20.21
2022-08-22T23:08:55.536Z,20.25
2022-08-22T23:11:28.344Z,20.27
2022-08-22T23:13:55.865Z,20.30
2022-08-22T23:16:27.728Z,20.31
2022-08-22T23:18:55.686Z,20.30
2022-08-22T23:21:27.346Z,20.29
2022-08-22T23:23:57.866Z,20.31
2022-08-22T23:26:25.648Z,20.34
2022-08-22T23:28:52.534Z,20.35
2022-08-22T23:31:31.202Z,20.34
2022-08-22T23:34:05.631Z,20.32
2022-08-22T23:36:33.597Z,20.26
2022-08-22T23:39:00.441Z,20.24
2022-08-22T23:41:27.441Z,20.23
2022-08-22T23:43:54.862Z,20.22
2022-08-22T23:46:24.560Z,20.22
2022-08-22T23:48:52.414Z,20.21
2022-08-22T23:51:23.210Z,20.19
2022-08-22T23:53:52.789Z,20.20
2022-08-22T23:56:31.874Z,20.18
2022-08-22T23:59:03.873Z,20.14
